Weather observations for the past three days for
Newport, Newport Municipal Airport
Metric (Imperial)
Date Time (cdt) Wind (kph) Vis. (km) Weather Sky Cond. Temperature (ºC) Relative Humidity Wind Chill (°C) Heat Index (°C) Pressure Precipitation (cm)
Air Dwpt 6 hour altimeter (cm) sea level (mb) 1 hr 3 hr 6 hr
Max. Min.
05 15:56 S 22 16.09 Overcast OVC015 21.1 18.9 87% 75.46 1007.3
05 14:56 S 20 16.09 Overcast OVC015 20.6 18.3 87% 75.51 1007.8
05 13:56 S 24 16.09 Overcast OVC013 20 18.3 90% 75.49 1007.6
05 12:56 S 26 16.09 Overcast OVC009 19.4 17.8 19.4 16.7 91% 75.54 1008.1 0.23
05 11:56 S 28 16.09 Overcast OVC009 18.9 17.2 90% 75.54 1008.4
05 10:56 S 31 16.09 Overcast OVC007 18.3 16.7 90% 75.59 1008.8
05 09:56 S 26 16.09 Overcast OVC007 18.3 17.2 93% 75.59 1009.0 0.23
05 08:56 S 19 16.09 Overcast BKN007 BKN010 OVC016 17.8 16.7 93% 75.62 1009.3 0.03
05 07:56 S 11 16.09 Light Rain OVC012 17.2 16.1 93% 75.69 1010.2 0.2
05 06:56 S 7 12.87 Thunderstorm in Vicinity Rain FEW028 SCT080 OVC100 16.7 15.6 18.3 16.7 93% 75.62 1009.3 0.43 0.46
05 05:56 S 13 16.09 Light Rain FEW050 SCT070 OVC110 17.2 15 87% 75.59 1008.8 0.03
05 04:56 S 22 16.09 A Few Clouds FEW050 18.3 13.9 76% 75.51 1008.0
05 03:56 S 19 16.09 Fair CLR 17.2 12.8 76% 75.49 1007.7
05 02:56 S 17 16.09 Fair CLR 17.2 12.2 73% 75.57 1008.5
05 01:56 S 20 16.09 Fair CLR 17.2 11.7 70% 75.57 1008.7
05 00:56 S 19 16.09 Fair CLR 17.2 11.7 23.9 17.2 70% 75.67 1009.9
04 23:56 S 19 16.09 Fair CLR 18.3 11.7 66% 75.69 1010.2
04 22:56 S 17 16.09 Fair CLR 18.3 11.7 66% 75.69 1010.2
04 21:56 S 20 16.09 Fair CLR 19.4 11.7 61% 75.67 1010.0
04 20:56 S 22 16.09 Fair CLR 20.6 11.7 57% 75.64 1009.5
04 19:56 S 17 16.09 Fair CLR 21.7 11.7 53% 75.62 1009.1
04 18:56 S 30 G 39 16.09 Fair CLR 23.9 11.1 26.7 23.9 45% 25 75.59 1009.0
04 17:56 S 37 G 46 16.09 A Few Clouds and Breezy FEW065 25.6 11.1 40% 26 75.62 1009.3
04 16:56 SW 33 G 48 16.09 Fair and Breezy CLR 26.1 11.1 39% 26 75.64 1009.6
04 15:56 SW 31 G 52 16.09 A Few Clouds FEW065 26.1 11.7 41% 26 75.67 1010.1
04 14:56 SW 39 G 52 16.09 Fair and Breezy CLR 26.1 11.1 39% 26 75.74 1010.8
04 13:56 SW 33 16.09 Fair and Breezy CLR 26.1 11.7 41% 26 75.77 1011.3
04 12:56 SW 35 G 50 16.09 Fair and Breezy CLR 25.6 10.6 25.6 14.4 39% 26 75.84 1012.2
04 11:56 S 39 G 52 16.09 Fair and Breezy CLR 24.4 10.6 42% 25 75.87 1012.8
04 10:56 SW 35 G 46 16.09 A Few Clouds and Breezy FEW002 23.3 11.1 46% 75.95 1013.6
04 09:56 SW 28 16.09 Fair CLR 21.1 11.7 55% 75.97 1014.1
04 08:56 SW 28 16.09 Fair CLR 18.9 11.7 63% 76 1014.2
04 07:56 S 20 16.09 Fair CLR 16.7 12.2 75% 75.97 1014.0
04 06:56 S 19 16.09 Fair CLR 14.4 11.7 16.1 13.3 84% 75.95 1013.8
04 05:56 S 15 16.09 Fair CLR 13.9 11.1 83% 75.95 1013.6
04 04:56 SW 17 16.09 Fair CLR 15 11.1 78% 75.95 1013.6
04 03:56 S 13 16.09 Fair CLR 14.4 11.1 81% 75.95 1013.7
04 02:56 SW 13 14.48 Fair CLR 15.6 11.1 75% 75.97 1014.0
04 01:56 S 15 16.09 Fair CLR 15.6 11.1 75% 76.02 1014.6
04 00:56 S 15 16.09 Fair CLR 16.1 11.1 22.8 16.1 72% 76.05 1015.2
03 23:56 S 19 16.09 Fair CLR 16.7 11.1 70% 76.07 1015.2
03 22:56 S 15 16.09 Fair CLR 16.1 11.1 72% 76.1 1015.7
03 21:56 S 13 16.09 Fair CLR 16.7 11.7 73% 76.07 1015.6
03 20:56 S 13 16.09 Fair CLR 17.2 12.2 73% 76.07 1015.6
03 19:56 S 15 16.09 Fair CLR 19.4 11.7 61% 76.07 1015.3
03 18:56 S 20 16.09 A Few Clouds FEW002 22.8 10 23.9 20.6 44% 76.1 1015.8
03 17:56 SW 22 16.09 Fair CLR 23.9 10 42% 25 76.12 1016.0
03 16:56 S 19 16.09 Fair CLR 23.9 9.4 40% 25 76.15 1016.6
03 15:56 SW 20 G 39 16.09 Fair CLR 23.3 8.9 40% 76.25 1017.7
03 14:56 S 20 16.09 Fair CLR 22.8 8.3 40% 76.33 1018.9
03 13:56 S 20 G 31 16.09 Fair CLR 21.7 6.7 38% 76.4 1020.0
03 12:56 SW 20 16.09 A Few Clouds FEW002 20.6 6.7 20.6 7.8 41% 76.5 1021.1
03 11:56 S 24 16.09 Fair CLR 19.4 7.2 45% 76.58 1022.1
03 10:56 S 22 16.09 Fair CLR 17.8 7.2 50% 76.63 1022.8
03 09:56 S 20 16.09 Fair CLR 16.1 7.2 56% 76.66 1023.2
03 08:56 S 22 16.09 Fair CLR 13.3 7.2 67% 76.66 1023.2
03 07:56 S 9 16.09 A Few Clouds FEW002 11.1 8.3 83% 76.66 1023.4
03 06:56 Calm 16.09 Fair CLR 7.8 6.7 10.6 7.2 93% 76.63 1022.9
03 05:56 Calm 16.09 Fair CLR 8.3 6.1 86% 76.58 1022.3
03 04:56 Calm 16.09 Fair CLR 8.9 5.6 80% 76.58 1022.3
03 03:56 Calm 16.09 Fair CLR 8.9 5.6 80% 76.61 1022.4
03 02:56 Calm 1.61 Fair with Haze CLR 10 5.6 74% 76.58 1022.3
03 01:56 E 7 16.09 Fair CLR 10 6.7 80% 9 76.58 1022.2
03 00:56 E 11 16.09 Fair CLR 10.6 6.1 18.3 10.6 74% 76.58 1022.2
02 23:56 NE 11 16.09 Fair CLR 11.1 6.7 75% 76.56 1021.8
02 22:56 N 7 8.05 Fair with Haze CLR 11.7 7.8 77% 76.5 1021.3
02 21:56 N 9 16.09 Fair CLR 12.2 7.2 72% 76.48 1021.0
02 20:56 Calm 4.83 Fair with Haze CLR 13.9 7.8 67% 76.45 1020.4
02 19:56 N 11 14.48 Fair CLR 15 6.7 58% 76.38 1019.7
02 18:56 N 17 16.09 Fair CLR 18.3 3.9 21.7 18.3 39% 76.35 1019.1
02 17:56 N 24 G 31 16.09 A Few Clouds FEW090 20 2.8 32% 76.33 1018.8
Date Time (cdt) Wind (kph) Vis. (km) Weather Sky Cond. Air Dwpt Max. Min. Relative Humidity Wind Chill (°C) Heat Index (°C) altimeter (cm) sea level (mb) 1 hr 3 hr 6 hr
6 hour
Temperature (ºC) Pressure Precipitation (cm)